Time;durP1;ratioP1;P1;durP2;ratioP2;P2;SDS_P1;SDS_P2;PMS_P1;PMS_P2;Temp;Humidity;BMP_temperature;BMP_pressure;BME280_temperature;BME280_humidity;BME280_pressure;Samples;Min_cycle;Max_cycle;Signal;HPM_P1;HPM_P2
2021/05/27 00:00:36;;;;;;;;;7.00;7.00;;;;;29.16;67.04;98577.75;4918692;29;8869;-71
2021/05/27 00:03:06;;;;;;;;;9.50;9.50;;;;;29.21;67.24;98586.25;4918595;29;8885;-72
2021/05/27 00:05:35;;;;;;;;;7.00;7.00;;;;;29.21;66.41;98585.47;4918882;29;8895;-72
2021/05/27 00:08:05;;;;;;;;;8.00;8.00;;;;;29.21;67.31;98583.53;4918695;29;8867;-72
2021/05/27 00:10:34;;;;;;;;;10.50;10.50;;;;;29.21;65.84;98597.13;4918465;29;8982;-71
2021/05/27 00:13:03;;;;;;;;;10.00;10.00;;;;;29.23;66.80;98594.78;4918419;29;8887;-72
2021/05/27 00:15:39;;;;;;;;;7.75;7.75;;;;;29.26;66.95;98601.38;4918523;29;8839;-72
2021/05/27 00:18:09;;;;;;;;;11.00;8.75;;;;;29.26;66.58;98597.88;4918076;29;8878;-72
2021/05/27 00:20:38;;;;;;;;;10.00;7.00;;;;;29.23;66.80;98589.34;4918352;29;8862;-72
2021/05/27 00:23:07;;;;;;;;;6.25;6.25;;;;;29.36;66.32;98602.50;4918236;29;8885;-71
2021/05/27 00:25:35;;;;;;;;;7.50;7.50;;;;;29.44;65.99;98601.31;4918315;29;8866;-72
2021/05/27 00:28:04;;;;;;;;;7.25;7.25;;;;;29.51;65.84;98601.28;4918488;29;8971;-72
2021/05/27 00:30:33;;;;;;;;;6.75;6.75;;;;;29.57;65.93;98604.38;4918467;29;8843;-71
2021/05/27 00:33:02;;;;;;;;;8.00;8.00;;;;;29.55;65.43;98593.91;4918031;29;8842;-72
2021/05/27 00:35:30;;;;;;;;;6.25;6.25;;;;;29.70;65.83;98611.66;4918029;29;8862;-72
2021/05/27 00:37:59;;;;;;;;;6.25;6.25;;;;;29.77;65.22;98613.56;4918228;29;8870;-72
2021/05/27 00:40:28;;;;;;;;;7.25;7.25;;;;;29.83;65.23;98614.69;4918787;29;8882;-72
2021/05/27 00:42:56;;;;;;;;;8.00;8.00;;;;;29.89;65.28;98604.19;4919723;29;8850;-72
2021/05/27 00:45:25;;;;;;;;;8.25;8.25;;;;;29.93;65.09;98602.94;4918442;29;9079;-72
2021/05/27 00:47:54;;;;;;;;;6.00;6.00;;;;;29.94;64.50;98601.78;4918868;29;8867;-72
2021/05/27 00:50:23;;;;;;;;;7.25;7.25;;;;;29.98;64.89;98605.25;4917947;29;8846;-72
2021/05/27 00:52:56;;;;;;;;;8.75;8.75;;;;;30.02;64.78;98611.47;4917630;29;8875;-72
2021/05/27 00:55:29;;;;;;;;;7.00;7.00;;;;;30.03;64.27;98606.81;4917804;29;8851;-72
2021/05/27 00:57:59;;;;;;;;;5.80;5.80;;;;;30.08;64.64;98614.53;4917706;29;8886;-72
2021/05/27 01:00:28;;;;;;;;;8.00;8.00;;;;;30.11;64.43;98608.28;4917780;29;9624;-72
2021/05/27 01:02:57;;;;;;;;;7.40;7.40;;;;;30.13;64.60;98603.22;4917610;29;8858;-72
2021/05/27 01:05:26;;;;;;;;;8.20;8.20;;;;;30.16;64.35;98610.59;4917574;29;8874;-72
2021/05/27 01:07:55;;;;;;;;;7.75;7.75;;;;;30.17;64.27;98609.41;4917772;29;8966;-72
2021/05/27 01:10:23;;;;;;;;;7.60;7.40;;;;;30.17;64.11;98607.47;4915742;29;8971;-74
2021/05/27 01:12:52;;;;;;;;;6.80;6.80;;;;;30.26;63.80;98619.84;4914979;29;8887;-71
2021/05/27 01:15:29;;;;;;;;;8.75;8.75;;;;;30.29;63.63;98621.75;4916074;29;8965;-75
2021/05/27 01:18:00;;;;;;;;;8.60;8.60;;;;;30.31;63.47;98622.13;4916304;29;8887;-75
2021/05/27 01:20:30;;;;;;;;;8.75;8.75;;;;;30.24;63.99;98622.97;4916004;29;8863;-74
2021/05/27 01:23:01;;;;;;;;;7.80;7.80;;;;;30.30;63.81;98626.81;4914981;29;8867;-75
2021/05/27 01:25:30;;;;;;;;;6.00;6.00;;;;;30.38;64.16;98632.97;4916698;29;8874;-74
2021/05/27 01:27:59;;;;;;;;;6.40;6.40;;;;;30.43;63.46;98637.97;4915088;29;8871;-73
2021/05/27 01:30:28;;;;;;;;;6.80;6.80;;;;;30.49;63.07;98626.25;4914929;29;8909;-73
2021/05/27 01:32:57;;;;;;;;;8.40;8.40;;;;;30.49;63.96;98618.09;4914840;29;8995;-74
2021/05/27 01:35:26;;;;;;;;;10.20;10.20;;;;;30.55;63.53;98626.59;4915763;29;8878;-76
2021/05/27 01:37:56;;;;;;;;;7.60;7.60;;;;;30.64;62.66;98624.19;4915685;29;8866;-74
2021/05/27 01:40:26;;;;;;;;;8.00;8.00;;;;;30.65;62.80;98628.47;4914414;29;8867;-74
2021/05/27 01:42:56;;;;;;;;;7.75;7.75;;;;;30.65;62.45;98636.63;4908353;29;8865;-73
2021/05/27 01:45:24;;;;;;;;;9.00;9.00;;;;;30.58;62.85;98627.75;4917142;29;8927;-71
2021/05/27 01:47:55;;;;;;;;;8.00;8.00;;;;;30.61;62.68;98635.91;4920558;29;8843;-77
2021/05/27 01:50:24;;;;;;;;;8.00;8.00;;;;;30.52;62.56;98619.22;4906544;29;8865;-76
2021/05/27 01:52:59;;;;;;;;;9.25;9.25;;;;;30.64;62.66;98637.81;4916289;29;8873;-76
2021/05/27 01:55:29;;;;;;;;;8.75;8.75;;;;;30.67;62.23;98642.47;4919165;29;8840;-74
2021/05/27 01:57:59;;;;;;;;;10.80;10.00;;;;;30.69;62.30;98644.78;4924815;29;8859;-73
2021/05/27 02:00:29;;;;;;;;;7.00;7.00;;;;;30.71;62.07;98645.16;4912077;29;8989;-73
2021/05/27 02:02:58;;;;;;;;;8.40;8.40;;;;;30.73;61.63;98650.97;4913209;29;8861;-73
2021/05/27 02:05:27;;;;;;;;;6.75;6.75;;;;;30.74;61.42;98658.72;4898907;29;8857;-73
2021/05/27 02:07:56;;;;;;;;;6.20;6.20;;;;;30.77;61.96;98665.31;4908636;29;8985;-73
2021/05/27 02:10:25;;;;;;;;;7.00;7.00;;;;;30.83;61.97;98666.44;4905498;29;8873;-72
2021/05/27 02:12:53;;;;;;;;;4.40;4.00;;;;;30.84;61.63;98654.34;4931730;29;8868;-73
2021/05/27 02:15:22;;;;;;;;;8.20;8.20;;;;;31.01;61.77;98666.25;4935174;29;8872;-75
2021/05/27 02:17:51;;;;;;;;;12.00;12.00;;;;;31.07;61.40;98670.06;4919454;29;8998;-71
2021/05/27 02:20:20;;;;;;;;;8.80;8.80;;;;;31.18;60.88;98667.28;4908803;29;8871;-76
2021/05/27 02:22:49;;;;;;;;;6.60;6.60;;;;;31.28;61.22;98660.91;4913281;29;8870;-75
2021/05/27 02:25:17;;;;;;;;;8.00;8.00;;;;;31.27;61.28;98649.22;4914313;29;8874;-74
2021/05/27 02:27:46;;;;;;;;;7.60;7.60;;;;;31.34;60.53;98659.28;4913215;29;8954;-73
2021/05/27 02:30:15;;;;;;;;;7.60;7.60;;;;;31.50;60.40;98669.59;4914046;29;8862;-74
2021/05/27 02:32:44;;;;;;;;;7.80;7.80;;;;;31.58;60.52;98676.50;4914706;29;8973;-74
2021/05/27 02:35:13;;;;;;;;;6.00;6.00;;;;;31.62;59.78;98672.56;4914852;29;8978;-70
2021/05/27 02:37:42;;;;;;;;;7.40;7.40;;;;;31.68;60.01;98670.94;4914177;29;8866;-71
2021/05/27 02:40:11;;;;;;;;;7.60;7.60;;;;;31.61;59.97;98638.28;4913570;29;8950;-73
2021/05/27 02:42:40;;;;;;;;;5.60;5.60;;;;;31.75;59.86;98661.91;4914453;29;8870;-73
2021/05/27 02:45:09;;;;;;;;;6.60;6.60;;;;;31.77;58.92;98667.72;4915375;29;8899;-74
2021/05/27 02:47:42;;;;;;;;;6.20;6.20;;;;;31.75;59.02;98665.41;4914120;29;8981;-74
2021/05/27 02:50:12;;;;;;;;;7.20;7.20;;;;;31.77;59.12;98667.72;4913976;29;8871;-74
2021/05/27 02:52:41;;;;;;;;;7.00;7.00;;;;;31.77;59.11;98663.03;4914635;29;8882;-76
2021/05/27 02:55:10;;;;;;;;;9.00;9.00;;;;;31.75;58.73;98659.16;4914750;29;8980;-74
2021/05/27 02:57:38;;;;;;;;;9.20;9.20;;;;;31.76;58.65;98666.94;4914346;29;9596;-75
2021/05/27 03:00:08;;;;;;;;;8.20;8.20;;;;;31.82;59.16;98664.53;4913714;29;8977;-74
2021/05/27 03:02:37;;;;;;;;;7.80;7.80;;;;;31.77;58.59;98665.00;4914325;29;8867;-73
2021/05/27 03:05:07;;;;;;;;;8.80;8.80;;;;;31.79;58.77;98665.34;4914450;29;8867;-71
2021/05/27 03:07:35;;;;;;;;;8.00;8.00;;;;;31.71;58.77;98658.44;4914737;29;8859;-73
2021/05/27 03:10:05;;;;;;;;;10.00;10.00;;;;;31.77;58.67;98668.50;4913738;29;8870;-71
2021/05/27 03:12:34;;;;;;;;;10.20;10.20;;;;;31.75;59.33;98662.66;4913879;29;8885;-71
2021/05/27 03:15:03;;;;;;;;;7.00;7.00;;;;;31.67;58.76;98649.50;4914448;29;8863;-73
2021/05/27 03:17:31;;;;;;;;;8.40;8.40;;;;;31.63;58.43;98649.56;4913863;29;8997;-73
2021/05/27 03:20:01;;;;;;;;;6.80;6.80;;;;;31.64;58.46;98645.66;4912439;29;8871;-72
2021/05/27 03:22:30;;;;;;;;;9.60;8.60;;;;;31.69;58.05;98653.41;4916898;29;8938;-75
2021/05/27 03:24:58;;;;;;;;;8.60;8.60;;;;;31.67;58.47;98653.00;4917914;29;8867;-71
2021/05/27 03:27:27;;;;;;;;;9.00;9.00;;;;;31.65;58.94;98649.91;4918817;29;8891;-72
2021/05/27 03:29:56;;;;;;;;;10.80;9.60;;;;;31.65;58.67;98649.91;4918206;29;8870;-71
2021/05/27 03:32:25;;;;;;;;;9.00;9.00;;;;;31.65;59.36;98639.00;4916373;29;8882;-73
2021/05/27 03:34:54;;;;;;;;;10.80;10.80;;;;;31.67;59.01;98635.88;4916839;29;8910;-73
2021/05/27 03:37:23;;;;;;;;;11.40;10.40;;;;;31.68;59.31;98626.50;4917962;29;8871;-73
2021/05/27 03:42:33;;;;;;;;;11.60;11.60;;;;;31.70;59.98;98624.19;4905557;29;8839;-72
2021/05/27 03:45:12;;;;;;;;;11.20;11.20;;;;;31.73;60.06;98621.41;4906183;29;8874;-75
2021/05/27 03:47:41;;;;;;;;;10.40;10.40;;;;;31.71;59.45;98631.94;4913286;29;8867;-74
2021/05/27 03:50:13;;;;;;;;;8.80;8.80;;;;;31.69;59.95;98620.69;4912075;29;9072;-72
2021/05/27 03:52:42;;;;;;;;;8.00;8.00;;;;;31.65;60.20;98622.66;4911837;29;8877;-73
2021/05/27 03:55:13;;;;;;;;;10.40;10.40;;;;;31.55;60.16;98611.88;4915791;29;9604;-76
2021/05/27 03:57:43;;;;;;;;;9.20;9.20;;;;;31.40;59.97;98595.72;4907406;29;8857;-75
2021/05/27 04:02:59;;;;;;;;;9.40;9.40;;;;;31.47;60.16;98608.47;4906075;29;8949;-71
2021/05/27 04:08:17;;;;;;;;;8.20;8.20;;;;;31.50;59.31;98612.34;4898503;29;8893;-74
2021/05/27 04:10:46;;;;;;;;;9.80;9.80;;;;;31.50;59.33;98612.34;4898021;29;8869;-77
2021/05/27 04:13:16;;;;;;;;;8.00;8.00;;;;;31.55;58.96;98604.47;4897461;29;8877;-72
2021/05/27 04:15:45;;;;;;;;;9.20;9.20;;;;;31.55;58.82;98601.75;4900569;29;8862;-71
2021/05/27 04:18:16;;;;;;;;;4.80;4.80;;;;;31.62;59.10;98601.66;4912085;29;8874;-72
2021/05/27 04:20:46;;;;;;;;;9.00;9.00;;;;;31.70;58.54;98605.84;4915614;29;8942;-72
2021/05/27 04:23:32;;;;;;;;;8.40;8.40;;;;;31.82;59.09;98603.75;4915115;29;8953;-72
2021/05/27 04:26:07;;;;;;;;;11.60;11.60;;;;;31.94;59.45;98598.50;4914964;29;9564;-72
2021/05/27 04:28:37;;;;;;;;;8.80;8.80;;;;;32.04;58.81;98594.06;4913958;29;8910;-74
2021/05/27 04:31:11;;;;;;;;;10.00;8.40;;;;;32.10;58.55;98590.44;4916620;29;8874;-72
2021/05/27 04:33:43;;;;;;;;;8.00;8.00;;;;;32.24;58.41;98588.69;4916353;29;8914;-74
2021/05/27 04:36:14;;;;;;;;;9.60;9.60;;;;;32.34;58.70;98588.53;4906401;29;8862;-74
2021/05/27 04:38:44;;;;;;;;;9.40;9.40;;;;;32.24;58.68;98564.13;4906121;29;8868;-72
2021/05/27 04:41:13;;;;;;;;;10.40;10.40;;;;;32.49;58.79;98574.63;4905893;29;8953;-74
2021/05/27 04:43:46;;;;;;;;;10.80;10.80;;;;;32.53;58.79;98572.56;4904987;29;8857;-72
2021/05/27 04:46:15;;;;;;;;;8.60;8.60;;;;;32.60;58.33;98565.00;4905882;29;8873;-72
2021/05/27 04:48:43;;;;;;;;;9.80;9.80;;;;;32.63;58.30;98547.03;4907283;29;8855;-71
2021/05/27 04:51:35;;;;;;;;;8.00;8.00;;;;;32.78;57.13;98553.78;4909656;29;8819;-73
2021/05/27 04:54:08;;;;;;;;;8.80;8.80;;;;;32.92;57.30;98558.19;4910461;29;8866;-70
2021/05/27 04:56:37;;;;;;;;;9.20;9.20;;;;;33.00;56.67;98554.13;4913486;29;8878;-75
2021/05/27 04:59:06;;;;;;;;;10.20;9.20;;;;;33.08;56.04;98550.06;4913580;29;8859;-71
2021/05/27 05:01:37;;;;;;;;;9.60;9.60;;;;;33.16;56.82;98547.94;4914387;29;9613;-70
2021/05/27 05:04:05;;;;;;;;;8.00;8.00;;;;;33.24;56.83;98543.88;4911454;29;9025;-72
2021/05/27 05:06:34;;;;;;;;;9.20;9.20;;;;;33.32;56.04;98542.56;4910841;29;8839;-71
2021/05/27 05:09:04;;;;;;;;;8.00;8.00;;;;;33.40;55.50;98549.41;4911844;29;8867;-72
2021/05/27 05:11:33;;;;;;;;;7.60;7.60;;;;;33.46;53.90;98558.66;4913806;29;8892;-73
2021/05/27 05:14:01;;;;;;;;;10.00;10.00;;;;;33.46;55.09;98536.78;4910080;29;8934;-72
2021/05/27 05:16:53;;;;;;;;;8.80;8.80;;;;;33.61;54.89;98551.66;4904909;29;8819;-72
2021/05/27 05:19:47;;;;;;;;;9.20;9.20;;;;;33.72;54.21;98532.28;4903648;29;8928;-71
2021/05/27 05:22:16;;;;;;;;;8.00;8.00;;;;;33.80;55.42;98520.00;4908329;29;8855;-71
2021/05/27 05:25:11;;;;;;;;;8.60;8.60;;;;;33.85;55.01;98503.03;4913419;29;9552;-75
2021/05/27 05:27:40;;;;;;;;;7.80;7.80;;;;;33.83;53.88;98467.13;4911658;29;8851;-72
2021/05/27 05:30:21;;;;;;;;;4.20;4.20;;;;;34.02;54.90;98485.38;4912887;29;8957;-71
2021/05/27 05:32:51;;;;;;;;;7.20;7.20;;;;;34.07;53.73;98478.63;4910664;29;8886;-72
2021/05/27 05:35:21;;;;;;;;;10.80;10.80;;;;;34.08;53.44;98461.00;4913118;29;8894;-72
2021/05/27 05:37:53;;;;;;;;;9.80;9.80;;;;;34.13;53.87;98462.44;4912791;29;8878;-71
2021/05/27 05:40:25;;;;;;;;;9.60;9.60;;;;;34.28;53.34;98460.88;4903914;29;8921;-71
2021/05/27 05:42:55;;;;;;;;;9.00;9.00;;;;;34.41;54.45;98445.28;4914218;29;8832;-73
2021/05/27 05:45:25;;;;;;;;;17.00;17.00;;;;;34.51;55.78;98438.72;4911118;29;8867;-72
2021/05/27 05:48:18;;;;;;;;;10.60;10.60;;;;;34.43;52.30;98407.28;4910964;29;8949;-72
2021/05/27 05:50:52;;;;;;;;;8.80;8.80;;;;;34.47;52.94;98409.91;4909295;29;8885;-71
2021/05/27 05:53:24;;;;;;;;;8.60;8.60;;;;;34.51;52.42;98413.31;4911794;29;8867;-71
2021/05/27 05:55:57;;;;;;;;;10.20;8.60;;;;;34.44;53.03;98416.25;4911323;29;8870;-71
2021/05/27 05:58:26;;;;;;;;;7.60;7.60;;;;;34.42;53.58;98413.94;4911745;29;8874;-71
2021/05/27 06:00:55;;;;;;;;;7.40;7.40;;;;;34.34;55.15;98410.63;4906951;29;8871;-71
2021/05/27 06:03:26;;;;;;;;;8.00;8.00;;;;;34.30;54.33;98414.66;4913473;29;9616;-72
2021/05/27 06:05:57;;;;;;;;;7.00;7.00;;;;;34.23;54.28;98415.63;4912194;29;8867;-71
2021/05/27 06:08:26;;;;;;;;;8.00;8.00;;;;;34.16;55.17;98410.34;4910949;29;8872;-71
2021/05/27 06:10:55;;;;;;;;;7.40;7.40;;;;;34.07;55.35;98393.78;4913173;29;8882;-72
2021/05/27 06:13:24;;;;;;;;;8.00;8.00;;;;;34.02;54.19;98381.38;4914397;29;8889;-72
2021/05/27 06:15:53;;;;;;;;;9.00;9.00;;;;;33.94;54.31;98373.81;4913293;29;8958;-74
2021/05/27 06:18:25;;;;;;;;;8.60;8.60;;;;;33.88;54.27;98381.00;4913806;29;8998;-72
2021/05/27 06:20:57;;;;;;;;;9.80;9.80;;;;;33.92;54.34;98376.97;4910326;29;8859;-72
2021/05/27 06:23:26;;;;;;;;;10.00;10.00;;;;;34.00;55.04;98377.53;4914253;29;8875;-73
2021/05/27 06:25:55;;;;;;;;;8.40;8.40;;;;;34.04;53.39;98373.50;4914514;29;8867;-72
2021/05/27 06:28:23;;;;;;;;;8.40;8.40;;;;;34.04;55.26;98364.53;4913513;29;8974;-70
2021/05/27 06:30:52;;;;;;;;;7.00;7.00;;;;;33.98;54.53;98355.31;4912502;29;8835;-72
2021/05/27 06:33:21;;;;;;;;;8.20;8.20;;;;;33.94;55.10;98371.06;4912634;29;8913;-72
2021/05/27 06:35:50;;;;;;;;;6.60;6.60;;;;;33.78;54.64;98357.44;4912502;29;8961;-70
2021/05/27 06:38:19;;;;;;;;;5.60;5.60;;;;;33.69;55.49;98360.78;4912166;29;8886;-70
2021/05/27 06:40:47;;;;;;;;;8.20;8.20;;;;;33.54;56.12;98356.88;4913686;29;8859;-70
2021/05/27 06:43:16;;;;;;;;;9.60;9.60;;;;;33.41;58.37;98364.25;4913030;29;8878;-72
2021/05/27 06:45:45;;;;;;;;;7.80;7.80;;;;;33.23;57.51;98361.91;4912588;29;8850;-74
2021/05/27 06:48:14;;;;;;;;;6.80;6.80;;;;;33.01;56.16;98364.38;4912745;29;8871;-72
2021/05/27 06:50:44;;;;;;;;;7.00;7.00;;;;;32.81;57.50;98380.84;4913416;29;8847;-71
2021/05/27 06:53:16;;;;;;;;;5.80;5.80;;;;;32.72;57.07;98402.47;4912906;29;8950;-72
2021/05/27 06:55:46;;;;;;;;;4.40;4.40;;;;;32.48;57.54;98395.59;4914188;29;8977;-71
2021/05/27 06:58:17;;;;;;;;;5.20;5.20;;;;;32.37;57.60;98401.28;4910957;29;8859;-71
2021/05/27 07:00:45;;;;;;;;;5.80;5.80;;;;;32.13;57.63;98406.00;4912586;29;8862;-71
2021/05/27 07:03:17;;;;;;;;;6.60;6.60;;;;;31.89;58.01;98412.69;4912073;29;8866;-72
2021/05/27 07:05:46;;;;;;;;;7.00;7.00;;;;;31.62;58.05;98416.25;4914312;29;8881;-73
2021/05/27 07:08:14;;;;;;;;;3.20;3.20;;;;;31.43;58.58;98441.47;4912821;29;8863;-71
2021/05/27 07:10:45;;;;;;;;;5.80;5.80;;;;;31.10;59.12;98457.53;4911495;29;8863;-71
2021/05/27 07:13:13;;;;;;;;;7.00;7.00;;;;;30.61;59.71;98475.28;4912677;29;8870;-71
2021/05/27 07:15:42;;;;;;;;;3.20;3.20;;;;;30.27;60.34;98482.63;4877877;29;8894;-70
2021/05/27 07:18:34;;;;;;;;;2.00;2.00;;;;;29.78;61.01;98439.16;4910590;29;9984;-71
2021/05/27 07:21:06;;;;;;;;;1.40;1.40;;;;;29.76;62.60;98444.22;4912977;29;8889;-71
2021/05/27 07:24:00;;;;;;;;;2.00;2.00;;;;;29.61;62.58;98418.34;4913477;29;8926;-71
2021/05/27 07:26:29;;;;;;;;;0.80;0.80;;;;;29.53;62.39;98404.03;4912022;29;8885;-72
2021/05/27 07:28:58;;;;;;;;;2.00;2.00;;;;;29.51;62.32;98402.91;4915288;29;8886;-71
2021/05/27 07:31:27;;;;;;;;;1.00;1.00;;;;;29.39;62.69;98384.34;4914375;29;8862;-71
2021/05/27 07:33:56;;;;;;;;;1.20;1.20;;;;;29.44;62.94;98382.00;4914733;29;8899;-70
2021/05/27 07:36:25;;;;;;;;;1.20;1.20;;;;;29.39;62.45;98365.31;4913646;29;8871;-70
2021/05/27 07:38:54;;;;;;;;;1.60;1.60;;;;;29.36;63.35;98357.97;4915489;29;8890;-72
2021/05/27 07:41:22;;;;;;;;;1.20;1.20;;;;;29.29;63.53;98352.59;4915689;29;8858;-72
2021/05/27 07:43:52;;;;;;;;;0.60;0.60;;;;;29.25;62.80;98347.19;4916396;29;8934;-71
2021/05/27 07:46:21;;;;;;;;;0.00;0.00;;;;;29.17;63.53;98322.03;4915956;29;8875;-71
2021/05/27 07:48:50;;;;;;;;;0.60;0.60;;;;;29.12;63.98;98295.28;4914840;29;8842;-71
2021/05/27 07:51:18;;;;;;;;;1.40;1.40;;;;;29.13;63.78;98290.63;4908952;29;8966;-72
2021/05/27 07:53:48;;;;;;;;;1.00;1.00;;;;;29.17;64.07;98291.38;4906799;29;8857;-74
2021/05/27 07:56:17;;;;;;;;;1.40;1.40;;;;;29.27;63.00;98306.03;4909580;29;9582;-70
2021/05/27 07:58:46;;;;;;;;;2.00;2.00;;;;;29.29;64.73;98306.41;4915863;29;8863;-70
2021/05/27 08:01:15;;;;;;;;;1.00;1.00;;;;;29.25;64.74;98281.22;4915574;29;8863;-70
2021/05/27 08:03:44;;;;;;;;;0.80;0.80;;;;;29.27;64.95;98278.88;4915348;29;8862;-72
2021/05/27 08:06:13;;;;;;;;;0.80;0.80;;;;;29.41;65.78;98295.03;4913969;29;8961;-72
2021/05/27 08:08:42;;;;;;;;;1.60;1.60;;;;;29.34;65.93;98271.44;4913443;29;9580;-72
2021/05/27 08:11:11;;;;;;;;;1.80;1.80;;;;;29.30;63.07;98267.97;4913025;29;8866;-71
2021/05/27 08:13:39;;;;;;;;;1.00;1.00;;;;;29.43;63.27;98279.13;4915229;29;8909;-73
2021/05/27 08:16:32;;;;;;;;;0.80;0.80;;;;;29.45;62.32;98274.84;4905726;29;8855;-72
2021/05/27 08:19:01;;;;;;;;;1.00;1.00;;;;;29.43;64.15;98260.88;4907030;29;9338;-72
2021/05/27 08:21:31;;;;;;;;;1.20;1.20;;;;;29.56;66.01;98272.00;4927800;29;8861;-73
2021/05/27 08:24:00;;;;;;;;;1.60;1.60;;;;;29.68;66.78;98268.78;4905729;29;8850;-71
2021/05/27 08:26:52;;;;;;;;;0.60;0.60;;;;;29.82;65.40;98276.78;4906107;29;8965;-72
2021/05/27 08:29:21;;;;;;;;;1.00;1.00;;;;;29.94;64.23;98286.31;4905231;29;8877;-72
2021/05/27 08:31:50;;;;;;;;;1.60;1.60;;;;;30.10;64.17;98302.84;4906132;29;8934;-72
2021/05/27 08:34:19;;;;;;;;;2.00;2.00;;;;;30.44;64.00;98340.91;4907360;29;8921;-73
2021/05/27 08:36:49;;;;;;;;;2.80;2.80;;;;;30.57;62.55;98340.34;4910156;29;8994;-70
2021/05/27 08:39:18;;;;;;;;;1.80;1.80;;;;;30.74;62.00;98342.84;4899940;29;8940;-70
2021/05/27 08:41:47;;;;;;;;;2.60;2.60;;;;;30.91;60.85;98329.41;4899680;29;8980;-75
2021/05/27 08:44:19;;;;;;;;;1.80;1.80;;;;;31.10;60.45;98323.25;4900046;29;8885;-71
2021/05/27 08:46:48;;;;;;;;;1.60;1.60;;;;;31.16;61.32;98310.72;4897257;29;8877;-73
2021/05/27 08:49:18;;;;;;;;;1.60;1.60;;;;;31.24;61.31;98297.72;4897428;29;8861;-71
2021/05/27 08:51:47;;;;;;;;;1.00;1.00;;;;;31.40;60.24;98284.97;4896555;29;8921;-71
2021/05/27 08:54:15;;;;;;;;;1.80;1.80;;;;;31.41;59.52;98253.81;4897228;29;8936;-74
2021/05/27 08:56:45;;;;;;;;;2.80;1.20;;;;;31.73;59.21;98274.28;4897659;29;8908;-71
2021/05/27 08:59:14;;;;;;;;;1.20;1.20;;;;;31.72;59.91;98251.69;4897555;29;8862;-71
2021/05/27 09:02:06;;;;;;;;;2.00;2.00;;;;;31.98;59.22;98268.31;4896563;29;8885;-72
2021/05/27 09:04:39;;;;;;;;;1.00;1.00;;;;;32.07;58.78;98274.75;4898291;29;8987;-71
2021/05/27 09:07:11;;;;;;;;;0.80;0.80;;;;;32.13;57.83;98268.78;4898756;29;8980;-70
2021/05/27 09:09:50;;;;;;;;;1.40;1.40;;;;;32.04;58.25;98251.03;4898734;29;8866;-70
2021/05/27 09:12:34;;;;;;;;;0.80;0.80;;;;;32.19;58.16;98264.38;4898732;29;8881;-70
2021/05/27 09:15:23;;;;;;;;;2.80;2.80;;;;;32.21;56.50;98262.75;4898537;29;8887;-70
2021/05/27 09:17:53;;;;;;;;;0.80;0.80;;;;;32.26;56.13;98273.22;4898000;29;8877;-70
2021/05/27 09:20:27;;;;;;;;;2.00;2.00;;;;;32.38;56.71;98279.97;4897637;29;8960;-70
2021/05/27 09:23:11;;;;;;;;;2.40;2.40;;;;;32.45;57.67;98288.00;4897466;29;8849;-70
2021/05/27 09:25:48;;;;;;;;;1.80;1.80;;;;;32.42;57.76;98306.00;4897572;29;8991;-70
2021/05/27 09:28:30;;;;;;;;;2.00;2.00;;;;;32.40;57.60;98310.34;4897761;29;8868;-70
2021/05/27 09:31:03;;;;;;;;;1.20;1.20;;;;;32.42;57.98;98311.47;4897418;29;8862;-70
2021/05/27 09:33:48;;;;;;;;;2.80;2.80;;;;;32.39;58.13;98319.72;4897339;29;8889;-70
2021/05/27 09:36:21;;;;;;;;;2.00;2.00;;;;;32.31;58.52;98327.31;4911985;29;8862;-70
2021/05/27 09:39:00;;;;;;;;;1.20;1.20;;;;;32.21;58.44;98341.13;4897389;29;8884;-70
2021/05/27 09:41:33;;;;;;;;;2.00;2.00;;;;;32.14;58.36;98341.28;4897233;29;8881;-70
2021/05/27 09:44:06;;;;;;;;;1.80;1.80;;;;;32.08;59.14;98346.47;4897245;29;8857;-70
2021/05/27 09:46:51;;;;;;;;;1.40;1.40;;;;;32.03;59.22;98364.09;4897323;29;8862;-70
2021/05/27 09:49:25;;;;;;;;;0.80;0.80;;;;;31.99;59.22;98362.63;4897772;29;8866;-70
2021/05/27 09:51:56;;;;;;;;;2.60;2.60;;;;;31.93;60.07;98365.06;4896304;29;8917;-70
2021/05/27 09:54:25;;;;;;;;;1.20;1.20;;;;;31.88;59.24;98360.09;4897223;29;8868;-70
2021/05/27 09:56:54;;;;;;;;;3.40;3.40;;;;;31.82;59.33;98363.72;4896979;29;8858;-70
2021/05/27 09:59:22;;;;;;;;;2.40;2.40;;;;;31.70;59.37;98363.16;4897037;29;8876;-70
2021/05/27 10:02:13;;;;;;;;;2.00;2.00;;;;;31.58;59.70;98377.34;4896873;29;8861;-70
2021/05/27 10:04:56;;;;;;;;;1.80;1.80;;;;;31.45;59.82;98428.97;4896857;29;8849;-70
2021/05/27 10:07:49;;;;;;;;;0.80;0.80;;;;;31.21;59.76;98467.50;4896905;29;8853;-70
2021/05/27 10:10:40;;;;;;;;;0.60;0.60;;;;;30.56;58.62;98448.47;4896795;29;8890;-71
2021/05/27 10:13:12;;;;;;;;;0.00;0.00;;;;;29.76;58.37;98436.06;4896848;29;8853;-71
2021/05/27 10:15:43;;;;;;;;;0.00;0.00;;;;;29.17;58.70;98463.25;4896735;29;8884;-71
2021/05/27 10:18:21;;;;;;;;;0.00;0.00;;;;;28.56;59.68;98479.06;4829842;29;1990481;-71
2021/05/27 10:20:51;;;;;;;;;0.00;0.00;;;;;28.22;60.31;98486.13;4897587;29;8861;-70
2021/05/27 10:23:19;;;;;;;;;0.00;0.00;;;;;27.99;60.93;98478.38;4897422;29;8861;-70
2021/05/27 10:25:50;;;;;;;;;0.00;0.00;;;;;27.82;61.55;98511.69;4897408;29;8879;-70
2021/05/27 10:28:20;;;;;;;;;0.00;0.00;;;;;27.58;62.22;98530.19;4897382;29;9653;-70
2021/05/27 10:30:49;;;;;;;;;0.00;0.00;;;;;27.32;63.09;98518.91;4897354;29;8841;-70
2021/05/27 10:33:21;;;;;;;;;0.00;0.00;;;;;27.16;63.42;98506.53;4897379;29;8849;-71
2021/05/27 10:35:57;;;;;;;;;0.00;0.00;;;;;27.07;63.80;98498.00;4897292;29;8980;-71
2021/05/27 10:38:49;;;;;;;;;0.00;0.00;;;;;26.98;64.19;98494.88;4897253;29;8924;-70
2021/05/27 10:41:22;;;;;;;;;0.00;0.00;;;;;26.95;64.82;98479.34;4897180;29;8877;-70
2021/05/27 10:44:14;;;;;;;;;0.00;0.00;;;;;26.87;65.53;98466.97;4897159;29;8853;-70
2021/05/27 10:46:44;;;;;;;;;0.00;0.00;;;;;26.81;65.33;98454.94;4897361;29;8864;-70
2021/05/27 10:49:54;;;;;;;;;0.00;0.00;;;;;26.81;67.18;98457.66;4897902;29;8885;-70
2021/05/27 10:52:43;;;;;;;;;0.00;0.00;;;;;26.89;68.32;98476.25;4897002;29;9653;-70
2021/05/27 10:55:36;;;;;;;;;0.00;0.00;;;;;26.95;67.72;98480.13;4897298;29;8856;-70
2021/05/27 10:58:07;;;;;;;;;0.00;0.00;;;;;27.04;67.12;98471.69;4896953;29;9016;-70
2021/05/27 11:00:50;;;;;;;;;0.00;0.00;;;;;27.18;67.35;98454.69;4897029;29;8869;-70
2021/05/27 11:03:43;;;;;;;;;0.00;0.00;;;;;27.33;67.56;98436.50;4900097;29;8873;-70
2021/05/27 11:06:18;;;;;;;;;0.00;0.00;;;;;27.50;66.86;98430.34;4900935;29;8962;-70
2021/05/27 11:08:47;;;;;;;;;0.00;0.00;;;;;27.46;66.52;98403.25;4900975;29;8869;-70
2021/05/27 11:11:41;;;;;;;;;0.00;0.00;;;;;27.80;66.14;98428.03;4900866;29;8865;-70
2021/05/27 11:14:36;;;;;;;;;0.00;0.00;;;;;27.94;66.10;98428.03;4900729;29;8901;-70
2021/05/27 11:17:25;;;;;;;;;0.00;0.00;;;;;28.06;65.42;98432.25;4900786;29;8888;-70
2021/05/27 11:20:09;;;;;;;;;0.00;0.00;;;;;28.13;65.13;98437.66;4900662;29;8862;-70
2021/05/27 11:22:45;;;;;;;;;0.00;0.00;;;;;28.20;64.61;98436.88;4900631;29;8849;-70
2021/05/27 11:25:24;;;;;;;;;0.00;0.00;;;;;28.22;64.96;98435.34;4900550;29;8861;-70
2021/05/27 11:28:08;;;;;;;;;0.00;0.00;;;;;28.28;65.08;98445.81;4900617;29;8910;-70
2021/05/27 11:30:51;;;;;;;;;0.00;0.00;;;;;28.36;64.96;98458.19;4900583;29;8880;-70
2021/05/27 11:33:36;;;;;;;;;0.00;0.00;;;;;28.46;64.65;98446.53;4900488;29;8984;-70
2021/05/27 11:36:12;;;;;;;;;0.00;0.00;;;;;28.54;64.31;98454.25;4900651;29;8937;-70
2021/05/27 11:38:42;;;;;;;;;0.00;0.00;;;;;28.62;64.64;98451.47;4900460;29;8873;-70
2021/05/27 11:41:18;;;;;;;;;0.00;0.00;;;;;28.70;63.70;98472.00;4900321;29;8936;-70
2021/05/27 11:43:49;;;;;;;;;0.00;0.00;;;;;28.76;63.86;98487.50;4900573;29;9626;-70
2021/05/27 11:46:25;;;;;;;;;0.00;0.00;;;;;28.81;64.09;98495.22;4900310;29;8869;-70
2021/05/27 11:51:33;;;;;;;;;0.00;0.00;;;;;28.86;63.93;98480.50;4900188;29;8920;-70
2021/05/27 11:54:10;;;;;;;;;0.00;0.00;;;;;28.98;63.54;98490.13;4900115;29;8877;-70
2021/05/27 11:56:49;;;;;;;;;0.00;0.00;;;;;29.01;63.36;98506.41;4900380;29;8957;-70
2021/05/27 11:59:26;;;;;;;;;0.00;0.00;;;;;29.04;63.38;98513.78;4900118;29;8976;-70
2021/05/27 12:02:00;;;;;;;;;0.00;0.00;;;;;29.07;63.48;98517.66;4899980;29;8869;-70
2021/05/27 12:04:32;;;;;;;;;1.00;1.00;;;;;29.06;63.31;98507.94;4900161;29;8853;-70
2021/05/27 12:07:13;;;;;;;;;1.00;1.00;;;;;29.10;63.31;98509.47;4899843;29;8957;-70
2021/05/27 12:09:45;;;;;;;;;0.75;0.75;;;;;29.12;63.41;98515.28;4899858;29;8861;-70
2021/05/27 12:12:29;;;;;;;;;0.00;0.00;;;;;29.15;63.11;98521.88;4900097;29;8869;-70
2021/05/27 12:15:03;;;;;;;;;0.40;0.40;;;;;29.17;63.41;98508.66;4899198;29;8850;-70
2021/05/27 12:17:38;;;;;;;;;1.00;1.00;;;;;29.11;63.34;98485.81;4899566;29;8881;-70